Akatsuki — 7JWA — position and weather

sailwx.info

Track history (hours):
 
Tides and Currents Weather Stations Pressure Air Temp Water Temp Dewpoint Dewpoint Depression Visibility Wind Speed Wind Dir Waves Ship Positions

Akatsuki

Last reported at 2018-Apr-23 20:57 UTC. Time now 2018-Apr-25 06:51 UTC.
Position N 34°49' E 137°13'.

Length 68 m; draft 5.3 m.

Type: Tug. MMSI: 431299000.

Date/timePositionNaut miles runAvg speedWind from/ knotsBaromVisibWave heightAir tempDewpointWater temp
2018-Apr-23 20:57N 34°49' E 137°13'4 7.7
2018-Apr-23 20:30N 34°45' E 137°13'2 3.8
2018-Apr-23 19:56N 34°44' E 137°10'2 3.9
2018-Apr-23 19:27N 34°43' E 137°08'2 3.9
2018-Apr-23 19:00N 34°42' E 137°07'2 3.9
2018-Apr-23 18:26N 34°41' E 137°04'2 3.9
2018-Apr-23 18:00N 34°40' E 137°03'2 4.1
2018-Apr-23 17:27N 34°39' E 137°01'6 7.9
2018-Apr-23 16:42N 34°33' E 137°02'41 1.6
2018-Apr-22 15:16N 33°55' E 137°20'2 3.5
2018-Apr-22 14:45N 33°55' E 137°18'1 3.5
2018-Apr-22 14:23N 33°55' E 137°17'2 0.7
2018-Apr-22 11:50N 33°55' E 137°19'2 1.9
2018-Apr-22 10:43N 33°55' E 137°16'1 2.7
2018-Apr-22 10:18N 33°55' E 137°17'1 2.8
2018-Apr-22 09:51N 33°55' E 137°19'3 2.5
2018-Apr-22 08:49N 33°55' E 137°22'0 0.8
2018-Apr-22 08:26N 33°55' E 137°22'3 0.4
2018-Apr-22 01:34N 33°55' E 137°19'2 0.5
2018-Apr-21 21:03N 33°56' E 137°21'0 2.2
2018-Apr-21 20:54N 33°56' E 137°21'4 0.8
2018-Apr-21 16:21N 33°55' E 137°16'1 2.1
2018-Apr-21 15:59N 33°55' E 137°17'2 2.8
2018-Apr-21 15:06N 33°55' E 137°20'0 3.1
2018-Apr-21 15:00N 33°55' E 137°21'2 3.0
2018-Apr-21 14:27N 33°55' E 137°23'2 3.3
2018-Apr-21 13:57N 33°55' E 137°21'3 3.1
2018-Apr-21 13:05N 33°54' E 137°18'0 2.9
2018-Apr-21 12:59N 33°54' E 137°17'1 2.1
2018-Apr-21 12:30N 33°54' E 137°16'1 2.2
2018-Apr-21 12:00N 33°55' E 137°17'2 3.1
2018-Apr-21 11:30N 33°55' E 137°19'1 2.7
2018-Apr-21 11:00N 33°55' E 137°20'1 2.3
2018-Apr-21 10:30N 33°56' E 137°22'0 0.8
2018-Apr-21 09:58N 33°56' E 137°22'1 1.6
2018-Apr-21 09:30N 33°56' E 137°21'3 0.2
2018-Apr-20 19:07N 33°54' E 137°18'0 2.4
2018-Apr-20 18:57N 33°54' E 137°18'2 2.1
2018-Apr-20 18:03N 33°53' E 137°16'3 2.5
2018-Apr-20 16:57N 33°55' E 137°15'1 2.3
2018-Apr-20 16:30N 33°56' E 137°15'3 3.1
2018-Apr-20 15:37N 33°58' E 137°18'1 3.1
2018-Apr-20 15:25N 33°58' E 137°19'2 1.0
2018-Apr-20 13:09N 33°56' E 137°21'0 2.2
2018-Apr-20 12:55N 33°56' E 137°20'9 7.4
2018-Apr-20 11:45N 34°04' E 137°15'3611.5
2018-Apr-20 08:37N 34°37' E 136°59'111.6
2018-Apr-20 08:30N 34°38' E 136°60'611.3
2018-Apr-20 08:00N 34°41' E 137°05'611.5
2018-Apr-20 07:30N 34°45' E 137°11'5 0.1
2018-Apr-19 00:03N 34°49' E 137°13'0 2.8
2018-Apr-18 23:56N 34°49' E 137°13'4 9.6
2018-Apr-18 23:30N 34°45' E 137°11'613.0
2018-Apr-18 23:00N 34°41' E 137°05'612.5
2018-Apr-18 22:30N 34°37' E 136°59'510.7
2018-Apr-18 22:00N 34°33' E 137°02'510.7
2018-Apr-18 21:30N 34°28' E 137°04'611.7
2018-Apr-18 20:58N 34°22' E 137°07'611.8
2018-Apr-18 20:29N 34°17' E 137°10'23 0.6
2018-Apr-17 08:32N 34°38' E 136°59'110.3
2018-Apr-17 08:29N 34°38' E 136°59'511.0
2018-Apr-17 08:00N 34°41' E 137°05'611.5
2018-Apr-17 07:30N 34°44' E 137°11'  
2018-Apr-13 21:08N 34°49' E 137°13'1 5.6
2018-Apr-13 21:00N 34°48' E 137°13'  
Track history (hours):
 
Tides and Currents Weather Stations Pressure Air Temp Water Temp Dewpoint Dewpoint Depression Visibility Wind Speed Wind Dir Waves Ship Positions

Akatsuki

Last reported at 2018-Apr-23 20:57 UTC. Time now 2018-Apr-25 06:51 UTC.
Position N 34°49' E 137°13'.

Length 68 m; draft 5.3 m.

Type: Tug. MMSI: 431299000.

Date/timePositionNaut miles runAvg speedWind from/ knotsBaromVisibWave heightAir tempDewpointWater temp
2018-Apr-23 20:57N 34°49' E 137°13'4 7.7
2018-Apr-23 20:30N 34°45' E 137°13'2 3.8
2018-Apr-23 19:56N 34°44' E 137°10'2 3.9
2018-Apr-23 19:27N 34°43' E 137°08'2 3.9
2018-Apr-23 19:00N 34°42' E 137°07'2 3.9
2018-Apr-23 18:26N 34°41' E 137°04'2 3.9
2018-Apr-23 18:00N 34°40' E 137°03'2 4.1
2018-Apr-23 17:27N 34°39' E 137°01'6 7.9
2018-Apr-23 16:42N 34°33' E 137°02'41 1.6
2018-Apr-22 15:16N 33°55' E 137°20'2 3.5
2018-Apr-22 14:45N 33°55' E 137°18'1 3.5
2018-Apr-22 14:23N 33°55' E 137°17'2 0.7
2018-Apr-22 11:50N 33°55' E 137°19'2 1.9
2018-Apr-22 10:43N 33°55' E 137°16'1 2.7
2018-Apr-22 10:18N 33°55' E 137°17'1 2.8
2018-Apr-22 09:51N 33°55' E 137°19'3 2.5
2018-Apr-22 08:49N 33°55' E 137°22'0 0.8
2018-Apr-22 08:26N 33°55' E 137°22'3 0.4
2018-Apr-22 01:34N 33°55' E 137°19'2 0.5
2018-Apr-21 21:03N 33°56' E 137°21'0 2.2
2018-Apr-21 20:54N 33°56' E 137°21'4 0.8
2018-Apr-21 16:21N 33°55' E 137°16'1 2.1
2018-Apr-21 15:59N 33°55' E 137°17'2 2.8
2018-Apr-21 15:06N 33°55' E 137°20'0 3.1
2018-Apr-21 15:00N 33°55' E 137°21'2 3.0
2018-Apr-21 14:27N 33°55' E 137°23'2 3.3
2018-Apr-21 13:57N 33°55' E 137°21'3 3.1
2018-Apr-21 13:05N 33°54' E 137°18'0 2.9
2018-Apr-21 12:59N 33°54' E 137°17'1 2.1
2018-Apr-21 12:30N 33°54' E 137°16'1 2.2
2018-Apr-21 12:00N 33°55' E 137°17'2 3.1
2018-Apr-21 11:30N 33°55' E 137°19'1 2.7
2018-Apr-21 11:00N 33°55' E 137°20'1 2.3
2018-Apr-21 10:30N 33°56' E 137°22'0 0.8
2018-Apr-21 09:58N 33°56' E 137°22'1 1.6
2018-Apr-21 09:30N 33°56' E 137°21'3 0.2
2018-Apr-20 19:07N 33°54' E 137°18'0 2.4
2018-Apr-20 18:57N 33°54' E 137°18'2 2.1
2018-Apr-20 18:03N 33°53' E 137°16'3 2.5
2018-Apr-20 16:57N 33°55' E 137°15'1 2.3
2018-Apr-20 16:30N 33°56' E 137°15'3 3.1
2018-Apr-20 15:37N 33°58' E 137°18'1 3.1
2018-Apr-20 15:25N 33°58' E 137°19'2 1.0
2018-Apr-20 13:09N 33°56' E 137°21'0 2.2
2018-Apr-20 12:55N 33°56' E 137°20'9 7.4
2018-Apr-20 11:45N 34°04' E 137°15'3611.5
2018-Apr-20 08:37N 34°37' E 136°59'111.6
2018-Apr-20 08:30N 34°38' E 136°60'611.3
2018-Apr-20 08:00N 34°41' E 137°05'611.5
2018-Apr-20 07:30N 34°45' E 137°11'5 0.1
2018-Apr-19 00:03N 34°49' E 137°13'0 2.8
2018-Apr-18 23:56N 34°49' E 137°13'4 9.6
2018-Apr-18 23:30N 34°45' E 137°11'613.0
2018-Apr-18 23:00N 34°41' E 137°05'612.5
2018-Apr-18 22:30N 34°37' E 136°59'510.7
2018-Apr-18 22:00N 34°33' E 137°02'510.7
2018-Apr-18 21:30N 34°28' E 137°04'611.7
2018-Apr-18 20:58N 34°22' E 137°07'611.8
2018-Apr-18 20:29N 34°17' E 137°10'23 0.6
2018-Apr-17 08:32N 34°38' E 136°59'110.3
2018-Apr-17 08:29N 34°38' E 136°59'511.0
2018-Apr-17 08:00N 34°41' E 137°05'611.5
2018-Apr-17 07:30N 34°44' E 137°11'  
2018-Apr-13 21:08N 34°49' E 137°13'1 5.6
2018-Apr-13 21:00N 34°48' E 137°13'  

Dump ship's entire track history